sensor_id;sensor_type;location;lat;lon;timestamp;P1;durP1;ratioP1;P2;durP2;ratioP2
3959;SDS011;1994;48.640;8.894;2022-10-16T00:01:34;3.40;;;2.57;;
3959;SDS011;1994;48.640;8.894;2022-10-16T00:04:00;2.50;;;2.27;;
3959;SDS011;1994;48.640;8.894;2022-10-16T00:06:30;2.70;;;2.20;;
3959;SDS011;1994;48.640;8.894;2022-10-16T00:08:57;4.47;;;2.23;;
3959;SDS011;1994;48.640;8.894;2022-10-16T00:11:28;2.90;;;2.70;;
3959;SDS011;1994;48.640;8.894;2022-10-16T00:14:02;3.43;;;2.60;;
3959;SDS011;1994;48.640;8.894;2022-10-16T00:16:34;2.97;;;2.50;;
3959;SDS011;1994;48.640;8.894;2022-10-16T00:19:00;3.80;;;2.40;;
3959;SDS011;1994;48.640;8.894;2022-10-16T00:21:26;3.23;;;2.67;;
3959;SDS011;1994;48.640;8.894;2022-10-16T00:23:58;2.43;;;2.20;;
3959;SDS011;1994;48.640;8.894;2022-10-16T00:26:28;3.33;;;2.97;;
3959;SDS011;1994;48.640;8.894;2022-10-16T00:28:55;3.90;;;3.03;;
3959;SDS011;1994;48.640;8.894;2022-10-16T00:31:22;3.07;;;2.73;;
3959;SDS011;1994;48.640;8.894;2022-10-16T00:33:57;5.20;;;2.90;;
3959;SDS011;1994;48.640;8.894;2022-10-16T00:36:24;3.20;;;2.70;;
3959;SDS011;1994;48.640;8.894;2022-10-16T00:38:51;3.93;;;2.30;;
3959;SDS011;1994;48.640;8.894;2022-10-16T00:41:24;2.90;;;2.60;;
3959;SDS011;1994;48.640;8.894;2022-10-16T00:43:55;5.27;;;2.80;;
3959;SDS011;1994;48.640;8.894;2022-10-16T00:46:25;3.37;;;2.27;;
3959;SDS011;1994;48.640;8.894;2022-10-16T00:49:01;2.47;;;2.07;;
3959;SDS011;1994;48.640;8.894;2022-10-16T00:51:46;7.43;;;3.07;;
3959;SDS011;1994;48.640;8.894;2022-10-16T00:54:22;4.27;;;2.40;;
3959;SDS011;1994;48.640;8.894;2022-10-16T00:56:52;8.03;;;3.00;;
3959;SDS011;1994;48.640;8.894;2022-10-16T00:59:21;5.07;;;2.30;;
3959;SDS011;1994;48.640;8.894;2022-10-16T01:02:09;7.20;;;2.70;;
3959;SDS011;1994;48.640;8.894;2022-10-16T01:04:49;3.33;;;2.30;;
3959;SDS011;1994;48.640;8.894;2022-10-16T01:12:54;2.73;;;2.23;;
3959;SDS011;1994;48.640;8.894;2022-10-16T01:21:27;2.60;;;2.40;;
3959;SDS011;1994;48.640;8.894;2022-10-16T01:27:24;2.10;;;2.00;;
3959;SDS011;1994;48.640;8.894;2022-10-16T01:29:56;3.97;;;2.43;;
3959;SDS011;1994;48.640;8.894;2022-10-16T01:35:04;3.43;;;2.63;;
3959;SDS011;1994;48.640;8.894;2022-10-16T01:37:40;3.60;;;2.10;;
3959;SDS011;1994;48.640;8.894;2022-10-16T01:40:33;3.00;;;2.10;;
3959;SDS011;1994;48.640;8.894;2022-10-16T01:43:03;2.03;;;1.80;;
3959;SDS011;1994;48.640;8.894;2022-10-16T01:45:37;2.63;;;1.80;;
3959;SDS011;1994;48.640;8.894;2022-10-16T01:48:05;3.40;;;2.10;;
3959;SDS011;1994;48.640;8.894;2022-10-16T01:50:35;2.20;;;2.00;;
3959;SDS011;1994;48.640;8.894;2022-10-16T01:53:05;2.70;;;2.00;;
3959;SDS011;1994;48.640;8.894;2022-10-16T01:55:36;4.77;;;2.03;;
3959;SDS011;1994;48.640;8.894;2022-10-16T01:58:08;2.40;;;2.20;;
3959;SDS011;1994;48.640;8.894;2022-10-16T02:00:58;4.10;;;2.60;;
3959;SDS011;1994;48.640;8.894;2022-10-16T02:03:23;5.13;;;2.33;;
3959;SDS011;1994;48.640;8.894;2022-10-16T02:05:50;2.10;;;1.90;;
3959;SDS011;1994;48.640;8.894;2022-10-16T02:08:21;3.20;;;2.10;;
3959;SDS011;1994;48.640;8.894;2022-10-16T02:10:53;3.23;;;2.30;;
3959;SDS011;1994;48.640;8.894;2022-10-16T02:13:30;3.47;;;1.80;;
3959;SDS011;1994;48.640;8.894;2022-10-16T02:16:10;4.93;;;2.00;;
3959;SDS011;1994;48.640;8.894;2022-10-16T02:18:37;2.70;;;2.27;;
3959;SDS011;1994;48.640;8.894;2022-10-16T02:21:06;1.70;;;1.60;;
3959;SDS011;1994;48.640;8.894;2022-10-16T02:23:54;4.23;;;2.30;;
3959;SDS011;1994;48.640;8.894;2022-10-16T02:26:39;6.50;;;2.07;;
3959;SDS011;1994;48.640;8.894;2022-10-16T02:29:17;4.83;;;2.80;;
3959;SDS011;1994;48.640;8.894;2022-10-16T02:31:49;2.80;;;2.53;;
3959;SDS011;1994;48.640;8.894;2022-10-16T02:34:19;3.53;;;2.43;;
3959;SDS011;1994;48.640;8.894;2022-10-16T02:36:48;7.83;;;2.37;;
3959;SDS011;1994;48.640;8.894;2022-10-16T02:39:16;2.47;;;2.27;;
3959;SDS011;1994;48.640;8.894;2022-10-16T02:41:44;3.30;;;2.30;;
3959;SDS011;1994;48.640;8.894;2022-10-16T02:44:10;4.00;;;2.70;;
3959;SDS011;1994;48.640;8.894;2022-10-16T02:46:36;3.73;;;2.33;;
3959;SDS011;1994;48.640;8.894;2022-10-16T02:49:02;2.83;;;2.10;;
3959;SDS011;1994;48.640;8.894;2022-10-16T02:51:28;2.90;;;2.07;;
3959;SDS011;1994;48.640;8.894;2022-10-16T02:53:54;3.80;;;2.13;;
3959;SDS011;1994;48.640;8.894;2022-10-16T02:56:20;2.30;;;1.80;;
3959;SDS011;1994;48.640;8.894;2022-10-16T02:58:46;9.30;;;2.10;;
3959;SDS011;1994;48.640;8.894;2022-10-16T03:01:11;2.50;;;1.80;;
3959;SDS011;1994;48.640;8.894;2022-10-16T03:03:39;3.00;;;2.30;;
3959;SDS011;1994;48.640;8.894;2022-10-16T03:06:04;7.70;;;2.40;;
3959;SDS011;1994;48.640;8.894;2022-10-16T03:08:31;3.33;;;1.97;;
3959;SDS011;1994;48.640;8.894;2022-10-16T03:10:57;2.57;;;2.00;;
3959;SDS011;1994;48.640;8.894;2022-10-16T03:13:25;2.67;;;2.20;;
3959;SDS011;1994;48.640;8.894;2022-10-16T03:15:51;2.33;;;2.13;;
3959;SDS011;1994;48.640;8.894;2022-10-16T03:18:16;3.10;;;2.07;;
3959;SDS011;1994;48.640;8.894;2022-10-16T03:20:43;2.07;;;1.87;;
3959;SDS011;1994;48.640;8.894;2022-10-16T03:23:09;2.90;;;2.23;;
3959;SDS011;1994;48.640;8.894;2022-10-16T03:25:34;2.00;;;1.90;;
3959;SDS011;1994;48.640;8.894;2022-10-16T03:28:00;2.77;;;1.93;;
3959;SDS011;1994;48.640;8.894;2022-10-16T03:30:32;5.37;;;2.43;;
3959;SDS011;1994;48.640;8.894;2022-10-16T03:33:00;3.53;;;1.93;;
3959;SDS011;1994;48.640;8.894;2022-10-16T03:35:26;2.50;;;2.30;;
3959;SDS011;1994;48.640;8.894;2022-10-16T03:37:52;1.90;;;1.70;;
3959;SDS011;1994;48.640;8.894;2022-10-16T03:40:17;2.10;;;1.90;;
3959;SDS011;1994;48.640;8.894;2022-10-16T03:42:43;4.80;;;2.37;;
3959;SDS011;1994;48.640;8.894;2022-10-16T03:45:10;3.60;;;2.20;;
3959;SDS011;1994;48.640;8.894;2022-10-16T03:47:36;6.30;;;2.40;;
3959;SDS011;1994;48.640;8.894;2022-10-16T03:50:06;2.73;;;2.30;;
3959;SDS011;1994;48.640;8.894;2022-10-16T03:52:32;3.03;;;2.47;;
3959;SDS011;1994;48.640;8.894;2022-10-16T03:55:01;4.00;;;2.77;;
3959;SDS011;1994;48.640;8.894;2022-10-16T03:57:27;3.63;;;2.10;;
3959;SDS011;1994;48.640;8.894;2022-10-16T03:59:53;2.50;;;2.20;;
3959;SDS011;1994;48.640;8.894;2022-10-16T04:02:19;2.43;;;1.90;;
3959;SDS011;1994;48.640;8.894;2022-10-16T04:04:44;2.60;;;2.07;;
3959;SDS011;1994;48.640;8.894;2022-10-16T04:07:10;3.90;;;2.20;;
3959;SDS011;1994;48.640;8.894;2022-10-16T04:09:36;8.03;;;2.30;;
3959;SDS011;1994;48.640;8.894;2022-10-16T04:12:01;2.53;;;2.33;;
3959;SDS011;1994;48.640;8.894;2022-10-16T04:14:27;2.27;;;2.03;;
3959;SDS011;1994;48.640;8.894;2022-10-16T04:16:53;5.80;;;2.90;;
3959;SDS011;1994;48.640;8.894;2022-10-16T04:19:19;2.83;;;2.20;;
3959;SDS011;1994;48.640;8.894;2022-10-16T04:21:45;2.53;;;2.20;;
3959;SDS011;1994;48.640;8.894;2022-10-16T04:24:10;4.47;;;2.40;;
3959;SDS011;1994;48.640;8.894;2022-10-16T04:26:37;2.27;;;2.07;;
3959;SDS011;1994;48.640;8.894;2022-10-16T04:29:06;3.03;;;2.50;;
3959;SDS011;1994;48.640;8.894;2022-10-16T04:31:32;4.13;;;2.33;;
3959;SDS011;1994;48.640;8.894;2022-10-16T04:33:58;8.60;;;2.30;;
3959;SDS011;1994;48.640;8.894;2022-10-16T04:36:24;7.03;;;1.93;;
3959;SDS011;1994;48.640;8.894;2022-10-16T04:38:49;3.83;;;2.20;;
3959;SDS011;1994;48.640;8.894;2022-10-16T04:41:15;8.53;;;2.40;;
3959;SDS011;1994;48.640;8.894;2022-10-16T04:43:41;2.40;;;2.20;;
3959;SDS011;1994;48.640;8.894;2022-10-16T04:46:07;2.10;;;1.70;;
3959;SDS011;1994;48.640;8.894;2022-10-16T04:48:32;4.80;;;1.90;;
3959;SDS011;1994;48.640;8.894;2022-10-16T04:50:58;2.87;;;2.07;;
3959;SDS011;1994;48.640;8.894;2022-10-16T04:53:24;2.00;;;1.80;;
3959;SDS011;1994;48.640;8.894;2022-10-16T04:55:50;1.97;;;1.87;;
3959;SDS011;1994;48.640;8.894;2022-10-16T04:58:16;2.47;;;2.27;;
3959;SDS011;1994;48.640;8.894;2022-10-16T05:00:42;2.83;;;2.27;;
3959;SDS011;1994;48.640;8.894;2022-10-16T05:03:09;4.83;;;2.00;;
3959;SDS011;1994;48.640;8.894;2022-10-16T05:05:35;2.53;;;2.33;;
3959;SDS011;1994;48.640;8.894;2022-10-16T05:08:01;4.93;;;2.60;;
3959;SDS011;1994;48.640;8.894;2022-10-16T05:10:28;4.47;;;2.30;;
3959;SDS011;1994;48.640;8.894;2022-10-16T05:12:53;2.70;;;2.00;;
3959;SDS011;1994;48.640;8.894;2022-10-16T05:15:19;2.90;;;2.27;;
3959;SDS011;1994;48.640;8.894;2022-10-16T05:17:45;2.30;;;2.10;;
3959;SDS011;1994;48.640;8.894;2022-10-16T05:20:17;2.50;;;2.10;;
3959;SDS011;1994;48.640;8.894;2022-10-16T05:22:43;6.43;;;2.10;;
3959;SDS011;1994;48.640;8.894;2022-10-16T05:25:11;2.30;;;2.00;;
3959;SDS011;1994;48.640;8.894;2022-10-16T05:27:37;4.33;;;2.13;;
3959;SDS011;1994;48.640;8.894;2022-10-16T05:30:03;3.30;;;2.27;;
3959;SDS011;1994;48.640;8.894;2022-10-16T05:32:29;5.43;;;2.50;;
3959;SDS011;1994;48.640;8.894;2022-10-16T05:34:55;7.20;;;2.43;;
3959;SDS011;1994;48.640;8.894;2022-10-16T05:37:20;8.00;;;2.93;;
3959;SDS011;1994;48.640;8.894;2022-10-16T05:39:46;2.83;;;2.40;;
3959;SDS011;1994;48.640;8.894;2022-10-16T05:42:15;3.10;;;2.80;;
3959;SDS011;1994;48.640;8.894;2022-10-16T05:44:40;8.07;;;2.07;;
3959;SDS011;1994;48.640;8.894;2022-10-16T05:47:06;4.10;;;2.40;;
3959;SDS011;1994;48.640;8.894;2022-10-16T05:49:32;2.33;;;2.13;;
3959;SDS011;1994;48.640;8.894;2022-10-16T05:51:57;5.23;;;1.90;;
3959;SDS011;1994;48.640;8.894;2022-10-16T05:54:23;3.90;;;3.23;;
3959;SDS011;1994;48.640;8.894;2022-10-16T05:56:52;3.70;;;2.90;;
3959;SDS011;1994;48.640;8.894;2022-10-16T05:59:18;2.90;;;2.57;;
3959;SDS011;1994;48.640;8.894;2022-10-16T06:01:43;3.63;;;2.80;;
3959;SDS011;1994;48.640;8.894;2022-10-16T06:04:09;2.83;;;2.53;;
3959;SDS011;1994;48.640;8.894;2022-10-16T06:06:35;3.03;;;2.70;;
3959;SDS011;1994;48.640;8.894;2022-10-16T06:09:01;11.50;;;2.93;;
3959;SDS011;1994;48.640;8.894;2022-10-16T06:11:29;3.37;;;2.27;;
3959;SDS011;1994;48.640;8.894;2022-10-16T06:13:57;5.07;;;2.53;;
3959;SDS011;1994;48.640;8.894;2022-10-16T06:16:27;2.27;;;1.93;;
3959;SDS011;1994;48.640;8.894;2022-10-16T06:18:54;2.80;;;2.60;;
3959;SDS011;1994;48.640;8.894;2022-10-16T06:21:24;2.67;;;2.10;;
3959;SDS011;1994;48.640;8.894;2022-10-16T06:23:51;3.93;;;2.33;;
3959;SDS011;1994;48.640;8.894;2022-10-16T06:26:19;4.80;;;2.60;;
3959;SDS011;1994;48.640;8.894;2022-10-16T06:28:51;6.47;;;2.00;;
3959;SDS011;1994;48.640;8.894;2022-10-16T06:31:20;5.40;;;2.73;;
3959;SDS011;1994;48.640;8.894;2022-10-16T06:33:49;7.30;;;2.27;;
3959;SDS011;1994;48.640;8.894;2022-10-16T06:36:16;3.50;;;2.40;;
3959;SDS011;1994;48.640;8.894;2022-10-16T06:38:45;4.00;;;2.40;;
3959;SDS011;1994;48.640;8.894;2022-10-16T06:41:13;3.43;;;2.53;;
3959;SDS011;1994;48.640;8.894;2022-10-16T06:43:42;2.70;;;1.97;;
3959;SDS011;1994;48.640;8.894;2022-10-16T06:46:10;4.13;;;2.17;;
3959;SDS011;1994;48.640;8.894;2022-10-16T06:48:38;2.97;;;2.23;;
3959;SDS011;1994;48.640;8.894;2022-10-16T06:51:05;4.27;;;1.97;;
3959;SDS011;1994;48.640;8.894;2022-10-16T06:53:41;3.50;;;2.50;;
3959;SDS011;1994;48.640;8.894;2022-10-16T06:56:11;2.63;;;2.40;;
3959;SDS011;1994;48.640;8.894;2022-10-16T06:58:38;2.30;;;2.10;;
3959;SDS011;1994;48.640;8.894;2022-10-16T07:01:05;3.53;;;2.70;;
3959;SDS011;1994;48.640;8.894;2022-10-16T07:03:31;2.50;;;2.30;;
3959;SDS011;1994;48.640;8.894;2022-10-16T07:06:08;4.00;;;3.13;;
3959;SDS011;1994;48.640;8.894;2022-10-16T07:08:39;2.37;;;2.17;;
3959;SDS011;1994;48.640;8.894;2022-10-16T07:11:11;3.03;;;2.10;;
3959;SDS011;1994;48.640;8.894;2022-10-16T07:13:43;3.60;;;2.80;;
3959;SDS011;1994;48.640;8.894;2022-10-16T07:18:42;3.57;;;2.80;;
3959;SDS011;1994;48.640;8.894;2022-10-16T07:21:19;3.87;;;2.67;;
3959;SDS011;1994;48.640;8.894;2022-10-16T07:23:50;4.03;;;2.53;;
3959;SDS011;1994;48.640;8.894;2022-10-16T07:26:17;3.07;;;2.43;;
3959;SDS011;1994;48.640;8.894;2022-10-16T07:28:43;2.57;;;2.17;;
3959;SDS011;1994;48.640;8.894;2022-10-16T07:31:12;5.50;;;2.83;;
3959;SDS011;1994;48.640;8.894;2022-10-16T07:33:40;2.60;;;2.40;;
3959;SDS011;1994;48.640;8.894;2022-10-16T07:36:09;3.80;;;2.97;;
3959;SDS011;1994;48.640;8.894;2022-10-16T07:38:37;2.70;;;2.23;;
3959;SDS011;1994;48.640;8.894;2022-10-16T07:41:04;2.60;;;2.40;;
3959;SDS011;1994;48.640;8.894;2022-10-16T07:43:32;4.97;;;2.93;;
3959;SDS011;1994;48.640;8.894;2022-10-16T07:45:59;2.87;;;2.20;;
3959;SDS011;1994;48.640;8.894;2022-10-16T07:48:33;7.70;;;2.60;;
3959;SDS011;1994;48.640;8.894;2022-10-16T07:51:00;3.63;;;2.17;;
3959;SDS011;1994;48.640;8.894;2022-10-16T07:53:34;3.50;;;2.80;;
3959;SDS011;1994;48.640;8.894;2022-10-16T07:56:04;2.93;;;2.60;;
3959;SDS011;1994;48.640;8.894;2022-10-16T07:58:31;3.20;;;2.50;;
3959;SDS011;1994;48.640;8.894;2022-10-16T08:00:59;2.43;;;2.20;;
3959;SDS011;1994;48.640;8.894;2022-10-16T08:03:30;2.40;;;2.20;;
3959;SDS011;1994;48.640;8.894;2022-10-16T08:05:56;3.23;;;2.00;;
3959;SDS011;1994;48.640;8.894;2022-10-16T08:08:26;2.30;;;2.07;;
3959;SDS011;1994;48.640;8.894;2022-10-16T08:10:52;4.43;;;2.27;;
3959;SDS011;1994;48.640;8.894;2022-10-16T08:13:19;3.73;;;2.50;;
3959;SDS011;1994;48.640;8.894;2022-10-16T08:15:45;3.30;;;1.93;;
3959;SDS011;1994;48.640;8.894;2022-10-16T08:18:11;5.30;;;2.20;;
3959;SDS011;1994;48.640;8.894;2022-10-16T08:20:42;2.27;;;2.07;;
3959;SDS011;1994;48.640;8.894;2022-10-16T08:23:09;2.53;;;2.30;;
3959;SDS011;1994;48.640;8.894;2022-10-16T08:25:37;8.00;;;2.83;;
3959;SDS011;1994;48.640;8.894;2022-10-16T08:28:04;2.37;;;2.20;;
3959;SDS011;1994;48.640;8.894;2022-10-16T08:30:31;2.13;;;1.67;;
3959;SDS011;1994;48.640;8.894;2022-10-16T08:32:57;6.63;;;1.90;;
3959;SDS011;1994;48.640;8.894;2022-10-16T08:35:23;2.40;;;2.20;;
3959;SDS011;1994;48.640;8.894;2022-10-16T08:37:49;2.30;;;2.10;;
3959;SDS011;1994;48.640;8.894;2022-10-16T08:40:16;3.60;;;2.33;;
3959;SDS011;1994;48.640;8.894;2022-10-16T08:43:02;4.07;;;2.13;;
3959;SDS011;1994;48.640;8.894;2022-10-16T08:48:56;2.50;;;2.27;;
3959;SDS011;1994;48.640;8.894;2022-10-16T08:51:25;3.57;;;1.80;;
3959;SDS011;1994;48.640;8.894;2022-10-16T08:53:58;4.80;;;2.30;;
3959;SDS011;1994;48.640;8.894;2022-10-16T08:56:26;2.77;;;2.57;;
3959;SDS011;1994;48.640;8.894;2022-10-16T08:58:53;2.13;;;1.90;;
3959;SDS011;1994;48.640;8.894;2022-10-16T09:01:20;2.10;;;1.90;;
3959;SDS011;1994;48.640;8.894;2022-10-16T09:10:06;2.10;;;1.90;;
3959;SDS011;1994;48.640;8.894;2022-10-16T09:13:11;2.10;;;1.87;;
3959;SDS011;1994;48.640;8.894;2022-10-16T09:21:35;2.00;;;1.90;;
3959;SDS011;1994;48.640;8.894;2022-10-16T09:24:14;2.00;;;1.90;;
3959;SDS011;1994;48.640;8.894;2022-10-16T09:26:46;2.37;;;2.10;;
3959;SDS011;1994;48.640;8.894;2022-10-16T09:29:13;3.10;;;2.27;;
3959;SDS011;1994;48.640;8.894;2022-10-16T09:31:40;2.13;;;1.70;;
3959;SDS011;1994;48.640;8.894;2022-10-16T09:34:20;3.37;;;2.43;;
3959;SDS011;1994;48.640;8.894;2022-10-16T09:36:55;2.13;;;1.93;;
3959;SDS011;1994;48.640;8.894;2022-10-16T09:39:25;2.27;;;2.00;;
3959;SDS011;1994;48.640;8.894;2022-10-16T09:41:51;3.10;;;2.13;;
3959;SDS011;1994;48.640;8.894;2022-10-16T09:44:18;2.13;;;1.93;;
3959;SDS011;1994;48.640;8.894;2022-10-16T09:47:10;3.87;;;1.97;;
3959;SDS011;1994;48.640;8.894;2022-10-16T09:49:56;2.40;;;2.20;;
3959;SDS011;1994;48.640;8.894;2022-10-16T09:52:33;2.37;;;2.00;;
3959;SDS011;1994;48.640;8.894;2022-10-16T09:55:09;6.93;;;1.70;;
3959;SDS011;1994;48.640;8.894;2022-10-16T09:57:51;2.77;;;1.80;;
3959;SDS011;1994;48.640;8.894;2022-10-16T10:00:20;2.90;;;2.13;;
3959;SDS011;1994;48.640;8.894;2022-10-16T10:02:49;2.20;;;2.07;;
3959;SDS011;1994;48.640;8.894;2022-10-16T10:05:20;2.53;;;2.00;;
3959;SDS011;1994;48.640;8.894;2022-10-16T10:07:52;2.07;;;1.90;;
3959;SDS011;1994;48.640;8.894;2022-10-16T10:10:32;1.90;;;1.80;;
3959;SDS011;1994;48.640;8.894;2022-10-16T10:13:02;2.03;;;1.93;;
3959;SDS011;1994;48.640;8.894;2022-10-16T10:15:33;1.73;;;1.63;;
3959;SDS011;1994;48.640;8.894;2022-10-16T10:18:19;2.27;;;2.07;;
3959;SDS011;1994;48.640;8.894;2022-10-16T10:20:56;2.60;;;2.37;;
3959;SDS011;1994;48.640;8.894;2022-10-16T10:23:27;5.60;;;2.40;;
3959;SDS011;1994;48.640;8.894;2022-10-16T10:40:23;1.87;;;1.77;;
3959;SDS011;1994;48.640;8.894;2022-10-16T10:43:12;2.03;;;1.60;;
3959;SDS011;1994;48.640;8.894;2022-10-16T10:45:55;1.80;;;1.70;;
3959;SDS011;1994;48.640;8.894;2022-10-16T10:51:22;1.83;;;1.60;;
3959;SDS011;1994;48.640;8.894;2022-10-16T10:54:00;2.60;;;1.53;;
3959;SDS011;1994;48.640;8.894;2022-10-16T11:06:30;4.70;;;1.77;;
3959;SDS011;1994;48.640;8.894;2022-10-16T11:09:13;5.50;;;1.73;;
3959;SDS011;1994;48.640;8.894;2022-10-16T11:14:44;3.40;;;1.90;;
3959;SDS011;1994;48.640;8.894;2022-10-16T11:17:28;2.77;;;2.33;;
3959;SDS011;1994;48.640;8.894;2022-10-16T11:20:05;1.90;;;1.80;;
3959;SDS011;1994;48.640;8.894;2022-10-16T11:22:58;2.73;;;2.00;;
3959;SDS011;1994;48.640;8.894;2022-10-16T11:25:33;2.43;;;2.07;;
3959;SDS011;1994;48.640;8.894;2022-10-16T11:28:11;2.97;;;1.47;;
3959;SDS011;1994;48.640;8.894;2022-10-16T11:33:30;3.17;;;2.13;;
3959;SDS011;1994;48.640;8.894;2022-10-16T11:39:08;4.50;;;1.60;;
3959;SDS011;1994;48.640;8.894;2022-10-16T11:41:50;2.80;;;1.70;;
3959;SDS011;1994;48.640;8.894;2022-10-16T11:44:40;1.80;;;1.70;;
3959;SDS011;1994;48.640;8.894;2022-10-16T11:47:24;2.03;;;1.70;;
3959;SDS011;1994;48.640;8.894;2022-10-16T11:53:45;5.43;;;1.87;;
3959;SDS011;1994;48.640;8.894;2022-10-16T11:56:22;5.77;;;3.23;;
3959;SDS011;1994;48.640;8.894;2022-10-16T12:01:53;3.83;;;2.17;;
3959;SDS011;1994;48.640;8.894;2022-10-16T12:04:42;5.60;;;1.83;;
3959;SDS011;1994;48.640;8.894;2022-10-16T12:07:16;3.10;;;2.03;;
3959;SDS011;1994;48.640;8.894;2022-10-16T12:09:49;7.13;;;1.80;;
3959;SDS011;1994;48.640;8.894;2022-10-16T12:15:00;1.77;;;1.60;;
3959;SDS011;1994;48.640;8.894;2022-10-16T12:17:47;1.93;;;1.70;;
3959;SDS011;1994;48.640;8.894;2022-10-16T12:20:33;2.20;;;1.80;;
3959;SDS011;1994;48.640;8.894;2022-10-16T12:23:02;2.60;;;2.40;;
3959;SDS011;1994;48.640;8.894;2022-10-16T12:25:38;5.80;;;1.80;;
3959;SDS011;1994;48.640;8.894;2022-10-16T12:30:43;2.67;;;1.93;;
3959;SDS011;1994;48.640;8.894;2022-10-16T12:33:20;2.50;;;2.17;;
3959;SDS011;1994;48.640;8.894;2022-10-16T12:35:52;2.93;;;2.03;;
3959;SDS011;1994;48.640;8.894;2022-10-16T12:38:19;6.50;;;2.50;;
3959;SDS011;1994;48.640;8.894;2022-10-16T12:40:46;6.23;;;1.87;;
3959;SDS011;1994;48.640;8.894;2022-10-16T12:43:41;2.63;;;2.23;;
3959;SDS011;1994;48.640;8.894;2022-10-16T12:48:35;3.33;;;2.27;;
3959;SDS011;1994;48.640;8.894;2022-10-16T12:51:37;7.50;;;2.33;;
3959;SDS011;1994;48.640;8.894;2022-10-16T13:05:32;1.93;;;1.70;;
3959;SDS011;1994;48.640;8.894;2022-10-16T13:17:10;1.73;;;1.63;;
3959;SDS011;1994;48.640;8.894;2022-10-16T13:22:36;3.37;;;2.43;;
3959;SDS011;1994;48.640;8.894;2022-10-16T13:28:31;2.00;;;1.80;;
3959;SDS011;1994;48.640;8.894;2022-10-16T13:31:00;4.53;;;1.90;;
3959;SDS011;1994;48.640;8.894;2022-10-16T13:33:32;2.20;;;2.00;;
3959;SDS011;1994;48.640;8.894;2022-10-16T13:36:03;3.20;;;2.00;;
3959;SDS011;1994;48.640;8.894;2022-10-16T13:38:31;1.93;;;1.83;;
3959;SDS011;1994;48.640;8.894;2022-10-16T13:41:12;2.53;;;2.30;;
3959;SDS011;1994;48.640;8.894;2022-10-16T13:43:43;4.10;;;1.70;;
3959;SDS011;1994;48.640;8.894;2022-10-16T13:46:20;2.00;;;1.80;;
3959;SDS011;1994;48.640;8.894;2022-10-16T13:49:01;2.73;;;1.83;;
3959;SDS011;1994;48.640;8.894;2022-10-16T13:51:36;2.60;;;1.83;;
3959;SDS011;1994;48.640;8.894;2022-10-16T13:54:02;2.43;;;2.23;;
3959;SDS011;1994;48.640;8.894;2022-10-16T13:56:31;2.57;;;2.37;;
3959;SDS011;1994;48.640;8.894;2022-10-16T13:59:02;3.50;;;2.33;;
3959;SDS011;1994;48.640;8.894;2022-10-16T14:01:33;6.07;;;2.00;;
3959;SDS011;1994;48.640;8.894;2022-10-16T14:04:09;4.53;;;2.80;;
3959;SDS011;1994;48.640;8.894;2022-10-16T14:06:40;4.50;;;3.40;;
3959;SDS011;1994;48.640;8.894;2022-10-16T14:09:11;2.93;;;2.73;;
3959;SDS011;1994;48.640;8.894;2022-10-16T14:12:06;2.03;;;1.93;;
3959;SDS011;1994;48.640;8.894;2022-10-16T14:14:42;2.80;;;2.10;;
3959;SDS011;1994;48.640;8.894;2022-10-16T14:17:29;2.17;;;1.97;;
3959;SDS011;1994;48.640;8.894;2022-10-16T14:20:00;2.30;;;2.10;;
3959;SDS011;1994;48.640;8.894;2022-10-16T14:25:00;3.70;;;2.13;;
3959;SDS011;1994;48.640;8.894;2022-10-16T14:27:38;2.50;;;2.27;;
3959;SDS011;1994;48.640;8.894;2022-10-16T14:32:40;2.50;;;2.10;;
3959;SDS011;1994;48.640;8.894;2022-10-16T14:35:31;2.50;;;2.10;;
3959;SDS011;1994;48.640;8.894;2022-10-16T14:38:02;2.90;;;1.80;;
3959;SDS011;1994;48.640;8.894;2022-10-16T14:40:31;2.00;;;1.80;;
3959;SDS011;1994;48.640;8.894;2022-10-16T14:43:02;2.07;;;1.67;;
3959;SDS011;1994;48.640;8.894;2022-10-16T14:45:31;2.47;;;2.27;;
3959;SDS011;1994;48.640;8.894;2022-10-16T14:48:06;2.60;;;2.40;;
3959;SDS011;1994;48.640;8.894;2022-10-16T14:50:42;3.33;;;2.07;;
3959;SDS011;1994;48.640;8.894;2022-10-16T14:53:11;4.60;;;2.50;;
3959;SDS011;1994;48.640;8.894;2022-10-16T14:55:38;9.20;;;2.30;;
3959;SDS011;1994;48.640;8.894;2022-10-16T14:58:05;4.70;;;3.17;;
3959;SDS011;1994;48.640;8.894;2022-10-16T15:00:39;7.80;;;2.10;;
3959;SDS011;1994;48.640;8.894;2022-10-16T15:03:05;5.53;;;2.17;;
3959;SDS011;1994;48.640;8.894;2022-10-16T15:05:30;2.00;;;1.80;;
3959;SDS011;1994;48.640;8.894;2022-10-16T15:07:59;2.43;;;2.10;;
3959;SDS011;1994;48.640;8.894;2022-10-16T15:10:26;3.27;;;2.33;;
3959;SDS011;1994;48.640;8.894;2022-10-16T15:12:54;3.10;;;2.00;;
3959;SDS011;1994;48.640;8.894;2022-10-16T15:18:03;3.50;;;2.37;;
3959;SDS011;1994;48.640;8.894;2022-10-16T15:20:31;4.03;;;2.20;;
3959;SDS011;1994;48.640;8.894;2022-10-16T15:23:00;2.10;;;1.90;;
3959;SDS011;1994;48.640;8.894;2022-10-16T15:28:09;2.07;;;1.87;;
3959;SDS011;1994;48.640;8.894;2022-10-16T15:30:36;3.00;;;1.90;;
3959;SDS011;1994;48.640;8.894;2022-10-16T15:33:03;2.17;;;1.97;;
3959;SDS011;1994;48.640;8.894;2022-10-16T15:35:30;6.90;;;2.80;;
3959;SDS011;1994;48.640;8.894;2022-10-16T15:37:56;2.73;;;1.97;;
3959;SDS011;1994;48.640;8.894;2022-10-16T15:40:23;2.47;;;2.27;;
3959;SDS011;1994;48.640;8.894;2022-10-16T15:42:51;2.80;;;2.00;;
3959;SDS011;1994;48.640;8.894;2022-10-16T15:45:17;2.17;;;2.00;;
3959;SDS011;1994;48.640;8.894;2022-10-16T15:47:44;2.10;;;1.67;;
3959;SDS011;1994;48.640;8.894;2022-10-16T15:50:14;2.40;;;2.13;;
3959;SDS011;1994;48.640;8.894;2022-10-16T15:52:47;3.10;;;2.00;;
3959;SDS011;1994;48.640;8.894;2022-10-16T15:55:15;2.83;;;2.50;;
3959;SDS011;1994;48.640;8.894;2022-10-16T15:57:43;3.47;;;1.60;;
3959;SDS011;1994;48.640;8.894;2022-10-16T16:00:11;4.80;;;2.10;;
3959;SDS011;1994;48.640;8.894;2022-10-16T16:02:40;2.13;;;1.93;;
3959;SDS011;1994;48.640;8.894;2022-10-16T16:05:08;2.50;;;2.30;;
3959;SDS011;1994;48.640;8.894;2022-10-16T16:07:36;10.27;;;2.50;;
3959;SDS011;1994;48.640;8.894;2022-10-16T16:10:04;7.10;;;2.80;;
3959;SDS011;1994;48.640;8.894;2022-10-16T16:12:32;4.87;;;2.70;;
3959;SDS011;1994;48.640;8.894;2022-10-16T16:14:58;2.70;;;2.50;;
3959;SDS011;1994;48.640;8.894;2022-10-16T16:17:24;2.57;;;2.37;;
3959;SDS011;1994;48.640;8.894;2022-10-16T16:19:50;3.77;;;3.23;;
3959;SDS011;1994;48.640;8.894;2022-10-16T16:22:16;3.00;;;2.70;;
3959;SDS011;1994;48.640;8.894;2022-10-16T16:24:42;5.77;;;2.77;;
3959;SDS011;1994;48.640;8.894;2022-10-16T16:27:08;16.53;;;4.00;;
3959;SDS011;1994;48.640;8.894;2022-10-16T16:29:34;6.10;;;3.17;;
3959;SDS011;1994;48.640;8.894;2022-10-16T16:32:00;8.53;;;3.50;;
3959;SDS011;1994;48.640;8.894;2022-10-16T16:34:26;7.57;;;3.90;;
3959;SDS011;1994;48.640;8.894;2022-10-16T16:36:53;8.40;;;3.70;;
3959;SDS011;1994;48.640;8.894;2022-10-16T16:39:20;4.53;;;3.83;;
3959;SDS011;1994;48.640;8.894;2022-10-16T16:41:46;7.67;;;3.57;;
3959;SDS011;1994;48.640;8.894;2022-10-16T16:44:12;5.80;;;3.13;;
3959;SDS011;1994;48.640;8.894;2022-10-16T16:46:39;5.10;;;3.13;;
3959;SDS011;1994;48.640;8.894;2022-10-16T16:49:08;6.90;;;3.60;;
3959;SDS011;1994;48.640;8.894;2022-10-16T16:51:36;7.07;;;3.30;;
3959;SDS011;1994;48.640;8.894;2022-10-16T16:54:02;7.03;;;3.60;;
3959;SDS011;1994;48.640;8.894;2022-10-16T16:56:27;5.50;;;3.10;;
3959;SDS011;1994;48.640;8.894;2022-10-16T16:58:54;5.20;;;4.70;;
3959;SDS011;1994;48.640;8.894;2022-10-16T17:01:22;9.20;;;5.03;;
3959;SDS011;1994;48.640;8.894;2022-10-16T17:03:54;10.90;;;5.60;;
3959;SDS011;1994;48.640;8.894;2022-10-16T17:06:23;10.73;;;4.57;;
3959;SDS011;1994;48.640;8.894;2022-10-16T17:08:54;6.67;;;3.83;;
3959;SDS011;1994;48.640;8.894;2022-10-16T17:11:23;4.63;;;3.53;;
3959;SDS011;1994;48.640;8.894;2022-10-16T17:13:53;6.77;;;3.90;;
3959;SDS011;1994;48.640;8.894;2022-10-16T17:16:22;11.47;;;6.97;;
3959;SDS011;1994;48.640;8.894;2022-10-16T17:18:50;8.13;;;4.53;;
3959;SDS011;1994;48.640;8.894;2022-10-16T17:21:17;12.60;;;4.50;;
3959;SDS011;1994;48.640;8.894;2022-10-16T17:23:44;11.00;;;7.07;;
3959;SDS011;1994;48.640;8.894;2022-10-16T17:26:11;9.87;;;6.30;;
3959;SDS011;1994;48.640;8.894;2022-10-16T17:28:40;13.40;;;7.70;;
3959;SDS011;1994;48.640;8.894;2022-10-16T17:31:10;42.83;;;19.37;;
3959;SDS011;1994;48.640;8.894;2022-10-16T17:33:41;69.53;;;35.07;;
3959;SDS011;1994;48.640;8.894;2022-10-16T17:36:07;33.30;;;21.00;;
3959;SDS011;1994;48.640;8.894;2022-10-16T17:38:35;30.67;;;19.47;;